sensor_id;sensor_type;location;lat;lon;timestamp;pressure;altitude;pressure_sealevel;temperature;humidity
42887;BME280;29032;56.028;92.904;2022-11-12T00:04:41;100081.38;;;1.13;51.57
42887;BME280;29032;56.028;92.904;2022-11-12T00:10:02;100071.81;;;1.09;50.86
42887;BME280;29032;56.028;92.904;2022-11-12T00:15:22;100076.78;;;1.01;50.96
42887;BME280;29032;56.028;92.904;2022-11-12T00:20:44;100068.28;;;1.08;50.74
42887;BME280;29032;56.028;92.904;2022-11-12T00:26:05;100063.69;;;0.96;51.43
42887;BME280;29032;56.028;92.904;2022-11-12T00:31:25;100062.63;;;1.03;51.12
42887;BME280;29032;56.028;92.904;2022-11-12T00:36:47;100063.41;;;1.03;50.82
42887;BME280;29032;56.028;92.904;2022-11-12T00:42:07;100043.28;;;0.97;50.69
42887;BME280;29032;56.028;92.904;2022-11-12T00:47:28;100057.44;;;0.96;51.00
42887;BME280;29032;56.028;92.904;2022-11-12T00:52:50;100051.81;;;0.99;50.57
42887;BME280;29032;56.028;92.904;2022-11-12T00:58:11;100051.03;;;0.90;50.56
42887;BME280;29032;56.028;92.904;2022-11-12T01:03:31;100048.41;;;0.86;50.46
42887;BME280;29032;56.028;92.904;2022-11-12T01:08:54;100053.19;;;0.95;49.92
42887;BME280;29032;56.028;92.904;2022-11-12T01:14:15;100045.09;;;0.91;50.45
42887;BME280;29032;56.028;92.904;2022-11-12T01:19:35;100035.66;;;0.92;49.56
42887;BME280;29032;56.028;92.904;2022-11-12T01:24:57;100037.94;;;0.94;49.73
42887;BME280;29032;56.028;92.904;2022-11-12T01:30:17;100036.09;;;0.81;49.56
42887;BME280;29032;56.028;92.904;2022-11-12T01:35:37;100037.41;;;0.68;50.12
42887;BME280;29032;56.028;92.904;2022-11-12T01:40:59;100033.47;;;0.69;50.43
42887;BME280;29032;56.028;92.904;2022-11-12T01:46:23;100028.44;;;0.76;50.35
42887;BME280;29032;56.028;92.904;2022-11-12T01:51:48;100033.78;;;0.80;49.68
42887;BME280;29032;56.028;92.904;2022-11-12T01:57:12;100045.38;;;0.84;49.89
42887;BME280;29032;56.028;92.904;2022-11-12T02:02:34;100024.69;;;0.92;50.06
42887;BME280;29032;56.028;92.904;2022-11-12T02:07:56;100020.13;;;0.98;49.68
42887;BME280;29032;56.028;92.904;2022-11-12T02:13:19;100015.22;;;0.93;49.98
42887;BME280;29032;56.028;92.904;2022-11-12T02:18:40;100007.91;;;0.81;50.05
42887;BME280;29032;56.028;92.904;2022-11-12T02:24:04;100006.69;;;0.82;49.92
42887;BME280;29032;56.028;92.904;2022-11-12T02:29:25;100005.59;;;0.79;50.01
42887;BME280;29032;56.028;92.904;2022-11-12T02:34:45;100008.53;;;0.85;49.84
42887;BME280;29032;56.028;92.904;2022-11-12T02:40:09;99999.13;;;0.95;49.92
42887;BME280;29032;56.028;92.904;2022-11-12T02:45:30;100001.53;;;0.93;49.64
42887;BME280;29032;56.028;92.904;2022-11-12T02:50:50;99983.56;;;0.92;50.13
42887;BME280;29032;56.028;92.904;2022-11-12T02:56:13;99978.25;;;1.07;49.60
42887;BME280;29032;56.028;92.904;2022-11-12T03:01:33;99975.66;;;1.03;48.78
42887;BME280;29032;56.028;92.904;2022-11-12T03:06:54;99974.16;;;1.02;49.53
42887;BME280;29032;56.028;92.904;2022-11-12T03:12:15;99963.00;;;1.06;49.22
42887;BME280;29032;56.028;92.904;2022-11-12T03:17:36;99963.34;;;1.17;49.09
42887;BME280;29032;56.028;92.904;2022-11-12T03:22:57;99965.91;;;1.30;49.18
42887;BME280;29032;56.028;92.904;2022-11-12T03:28:19;99969.25;;;1.43;48.93
42887;BME280;29032;56.028;92.904;2022-11-12T03:33:40;99965.75;;;1.52;48.27
42887;BME280;29032;56.028;92.904;2022-11-12T03:39:00;99949.41;;;1.57;48.24
42887;BME280;29032;56.028;92.904;2022-11-12T03:44:22;99951.84;;;1.64;48.24
42887;BME280;29032;56.028;92.904;2022-11-12T03:49:42;99950.97;;;1.58;47.96
42887;BME280;29032;56.028;92.904;2022-11-12T03:55:03;99940.28;;;1.60;48.10
42887;BME280;29032;56.028;92.904;2022-11-12T04:00:27;99940.84;;;1.64;47.97
42887;BME280;29032;56.028;92.904;2022-11-12T04:05:48;99929.63;;;1.53;47.88
42887;BME280;29032;56.028;92.904;2022-11-12T04:11:10;99929.94;;;1.46;47.92
42887;BME280;29032;56.028;92.904;2022-11-12T04:16:32;99922.16;;;1.45;48.29
42887;BME280;29032;56.028;92.904;2022-11-12T04:21:54;99918.06;;;1.40;47.64
42887;BME280;29032;56.028;92.904;2022-11-12T04:27:20;99928.09;;;1.43;47.96
42887;BME280;29032;56.028;92.904;2022-11-12T04:32:48;99920.31;;;1.51;47.79
42887;BME280;29032;56.028;92.904;2022-11-12T04:38:09;99921.84;;;1.43;47.54
42887;BME280;29032;56.028;92.904;2022-11-12T04:43:29;99916.06;;;1.40;47.62
42887;BME280;29032;56.028;92.904;2022-11-12T04:48:51;99912.72;;;1.46;47.76
42887;BME280;29032;56.028;92.904;2022-11-12T04:54:12;99916.19;;;1.55;47.10
42887;BME280;29032;56.028;92.904;2022-11-12T04:59:32;99909.16;;;1.73;46.76
42887;BME280;29032;56.028;92.904;2022-11-12T05:04:54;99911.25;;;1.87;46.55
42887;BME280;29032;56.028;92.904;2022-11-12T05:10:15;99898.41;;;1.84;46.32
42887;BME280;29032;56.028;92.904;2022-11-12T05:15:35;99892.94;;;1.84;46.09
42887;BME280;29032;56.028;92.904;2022-11-12T05:20:57;99893.53;;;1.88;45.59
42887;BME280;29032;56.028;92.904;2022-11-12T05:26:17;99882.13;;;1.80;45.39
42887;BME280;29032;56.028;92.904;2022-11-12T05:31:38;99874.34;;;1.79;45.68
42887;BME280;29032;56.028;92.904;2022-11-12T05:37:00;99876.66;;;1.71;45.86
42887;BME280;29032;56.028;92.904;2022-11-12T05:42:21;99870.84;;;1.78;45.79
42887;BME280;29032;56.028;92.904;2022-11-12T05:47:42;99867.31;;;1.78;46.57
42887;BME280;29032;56.028;92.904;2022-11-12T05:53:03;99869.91;;;1.81;46.54
42887;BME280;29032;56.028;92.904;2022-11-12T05:58:24;99866.00;;;1.73;46.36
42887;BME280;29032;56.028;92.904;2022-11-12T06:03:44;99844.03;;;1.73;46.71
42887;BME280;29032;56.028;92.904;2022-11-12T06:09:07;99863.47;;;1.93;46.99
42887;BME280;29032;56.028;92.904;2022-11-12T06:14:28;99860.59;;;1.88;47.01
42887;BME280;29032;56.028;92.904;2022-11-12T06:19:48;99851.47;;;1.82;47.08
42887;BME280;29032;56.028;92.904;2022-11-12T06:25:10;99837.53;;;1.94;47.53
42887;BME280;29032;56.028;92.904;2022-11-12T06:30:30;99839.28;;;2.07;48.05
42887;BME280;29032;56.028;92.904;2022-11-12T06:35:57;99838.59;;;2.21;47.41
42887;BME280;29032;56.028;92.904;2022-11-12T06:41:19;99829.44;;;2.24;47.96
42887;BME280;29032;56.028;92.904;2022-11-12T06:46:39;99828.69;;;2.14;46.53
42887;BME280;29032;56.028;92.904;2022-11-12T06:51:59;99816.19;;;2.13;47.12
42887;BME280;29032;56.028;92.904;2022-11-12T06:57:21;99814.28;;;2.29;47.42
42887;BME280;29032;56.028;92.904;2022-11-12T07:02:41;99808.72;;;2.38;46.88
42887;BME280;29032;56.028;92.904;2022-11-12T07:08:02;99803.06;;;2.56;46.49
42887;BME280;29032;56.028;92.904;2022-11-12T07:13:24;99800.84;;;2.69;46.04
42887;BME280;29032;56.028;92.904;2022-11-12T07:18:45;99797.81;;;2.67;45.64
42887;BME280;29032;56.028;92.904;2022-11-12T07:24:06;99776.28;;;2.66;46.19
42887;BME280;29032;56.028;92.904;2022-11-12T07:29:28;99782.44;;;2.61;46.23
42887;BME280;29032;56.028;92.904;2022-11-12T07:34:49;99772.94;;;2.62;45.94
42887;BME280;29032;56.028;92.904;2022-11-12T07:40:10;99780.81;;;2.54;46.60
42887;BME280;29032;56.028;92.904;2022-11-12T07:45:32;99776.34;;;2.57;46.83
42887;BME280;29032;56.028;92.904;2022-11-12T07:50:59;99760.34;;;2.55;46.73
42887;BME280;29032;56.028;92.904;2022-11-12T07:56:20;99747.56;;;2.52;46.64
42887;BME280;29032;56.028;92.904;2022-11-12T08:01:42;99749.66;;;2.57;46.56
42887;BME280;29032;56.028;92.904;2022-11-12T08:07:03;99749.16;;;2.44;46.57
42887;BME280;29032;56.028;92.904;2022-11-12T08:12:23;99744.44;;;2.20;46.91
42887;BME280;29032;56.028;92.904;2022-11-12T08:17:45;99754.16;;;2.07;47.28
42887;BME280;29032;56.028;92.904;2022-11-12T08:23:06;99740.00;;;1.99;47.05
42887;BME280;29032;56.028;92.904;2022-11-12T08:28:27;99736.38;;;1.93;47.44
42887;BME280;29032;56.028;92.904;2022-11-12T08:33:50;99746.03;;;1.88;47.99
42887;BME280;29032;56.028;92.904;2022-11-12T08:39:10;99751.69;;;1.85;47.66
42887;BME280;29032;56.028;92.904;2022-11-12T08:44:31;99745.09;;;1.91;47.89
42887;BME280;29032;56.028;92.904;2022-11-12T08:49:52;99743.81;;;2.02;47.97
42887;BME280;29032;56.028;92.904;2022-11-12T08:55:13;99744.34;;;1.91;48.21
42887;BME280;29032;56.028;92.904;2022-11-12T09:00:35;99737.94;;;1.94;48.16
42887;BME280;29032;56.028;92.904;2022-11-12T09:06:01;99742.66;;;1.93;48.81
42887;BME280;29032;56.028;92.904;2022-11-12T09:11:22;99747.72;;;1.86;48.78
42887;BME280;29032;56.028;92.904;2022-11-12T09:16:42;99741.59;;;1.91;49.06
42887;BME280;29032;56.028;92.904;2022-11-12T09:22:04;99730.91;;;1.93;48.64
42887;BME280;29032;56.028;92.904;2022-11-12T09:27:26;99739.13;;;1.93;48.87
42887;BME280;29032;56.028;92.904;2022-11-12T09:32:46;99716.59;;;1.89;49.14
42887;BME280;29032;56.028;92.904;2022-11-12T09:38:08;99717.81;;;1.88;49.29
42887;BME280;29032;56.028;92.904;2022-11-12T09:43:30;99721.44;;;1.94;49.19
42887;BME280;29032;56.028;92.904;2022-11-12T09:48:57;99705.78;;;2.09;48.94
42887;BME280;29032;56.028;92.904;2022-11-12T09:54:22;99710.72;;;2.20;48.71
42887;BME280;29032;56.028;92.904;2022-11-12T09:59:43;99702.84;;;2.13;48.60
42887;BME280;29032;56.028;92.904;2022-11-12T10:05:23;99698.13;;;2.28;48.25
42887;BME280;29032;56.028;92.904;2022-11-12T10:10:47;99695.56;;;2.24;48.66
42887;BME280;29032;56.028;92.904;2022-11-12T10:16:21;99688.75;;;2.35;48.02
42887;BME280;29032;56.028;92.904;2022-11-12T10:21:52;99685.56;;;2.36;47.99
42887;BME280;29032;56.028;92.904;2022-11-12T10:27:20;99673.22;;;2.32;47.87
42887;BME280;29032;56.028;92.904;2022-11-12T10:32:42;99664.63;;;2.39;47.24
42887;BME280;29032;56.028;92.904;2022-11-12T10:38:05;99659.03;;;2.33;46.90
42887;BME280;29032;56.028;92.904;2022-11-12T10:43:27;99652.88;;;2.23;47.34
42887;BME280;29032;56.028;92.904;2022-11-12T10:48:53;99654.16;;;2.28;46.90
42887;BME280;29032;56.028;92.904;2022-11-12T10:54:28;99648.78;;;2.34;46.68
42887;BME280;29032;56.028;92.904;2022-11-12T11:00:06;99628.91;;;2.39;46.68
42887;BME280;29032;56.028;92.904;2022-11-12T11:05:30;99627.94;;;2.42;46.23
42887;BME280;29032;56.028;92.904;2022-11-12T11:11:13;99632.22;;;2.43;45.92
42887;BME280;29032;56.028;92.904;2022-11-12T11:16:48;99618.50;;;2.43;46.07
42887;BME280;29032;56.028;92.904;2022-11-12T11:22:19;99608.03;;;2.62;45.78
42887;BME280;29032;56.028;92.904;2022-11-12T11:27:51;99602.72;;;2.73;45.48
42887;BME280;29032;56.028;92.904;2022-11-12T11:33:37;99600.63;;;2.83;45.64
42887;BME280;29032;56.028;92.904;2022-11-12T11:39:08;99603.28;;;2.92;45.46
42887;BME280;29032;56.028;92.904;2022-11-12T11:44:37;99583.16;;;3.00;44.38
42887;BME280;29032;56.028;92.904;2022-11-12T11:50:16;99585.44;;;2.87;45.07
42887;BME280;29032;56.028;92.904;2022-11-12T11:55:52;99576.56;;;2.63;45.16
42887;BME280;29032;56.028;92.904;2022-11-12T12:01:19;99567.31;;;2.45;45.85
42887;BME280;29032;56.028;92.904;2022-11-12T12:06:49;99573.94;;;2.54;45.93
42887;BME280;29032;56.028;92.904;2022-11-12T12:12:26;99559.72;;;2.55;45.92
42887;BME280;29032;56.028;92.904;2022-11-12T12:17:57;99540.16;;;2.68;46.14
42887;BME280;29032;56.028;92.904;2022-11-12T12:23:25;99537.84;;;2.96;45.54
42887;BME280;29032;56.028;92.904;2022-11-12T12:28:52;99536.63;;;3.17;44.95
42887;BME280;29032;56.028;92.904;2022-11-12T12:34:19;99538.81;;;3.33;44.82
42887;BME280;29032;56.028;92.904;2022-11-12T12:39:58;99528.13;;;3.41;44.19
42887;BME280;29032;56.028;92.904;2022-11-12T12:45:30;99519.69;;;3.24;44.73
42887;BME280;29032;56.028;92.904;2022-11-12T12:50:52;99505.81;;;3.13;44.91
42887;BME280;29032;56.028;92.904;2022-11-12T12:56:42;99500.59;;;3.15;44.89
42887;BME280;29032;56.028;92.904;2022-11-12T13:02:18;99497.25;;;2.91;44.95
42887;BME280;29032;56.028;92.904;2022-11-12T13:07:41;99492.41;;;2.65;45.75
42887;BME280;29032;56.028;92.904;2022-11-12T13:13:23;99472.06;;;2.77;45.78
42887;BME280;29032;56.028;92.904;2022-11-12T13:19:00;99474.69;;;2.87;45.61
42887;BME280;29032;56.028;92.904;2022-11-12T13:36:26;99452.41;;;2.85;45.10
42887;BME280;29032;56.028;92.904;2022-11-12T13:41:55;99445.34;;;2.78;45.04
42887;BME280;29032;56.028;92.904;2022-11-12T13:47:18;99438.66;;;2.85;44.95
42887;BME280;29032;56.028;92.904;2022-11-12T13:52:42;99434.97;;;2.88;44.69
42887;BME280;29032;56.028;92.904;2022-11-12T13:58:02;99424.38;;;2.81;43.88
42887;BME280;29032;56.028;92.904;2022-11-12T14:03:24;99410.81;;;2.77;44.49
42887;BME280;29032;56.028;92.904;2022-11-12T14:09:01;99415.06;;;2.93;44.85
42887;BME280;29032;56.028;92.904;2022-11-12T14:14:32;99404.09;;;2.98;44.39
42887;BME280;29032;56.028;92.904;2022-11-12T14:20:21;99403.69;;;3.05;44.07
42887;BME280;29032;56.028;92.904;2022-11-12T14:25:48;99412.84;;;2.97;44.20
42887;BME280;29032;56.028;92.904;2022-11-12T14:31:12;99399.78;;;2.92;44.52
42887;BME280;29032;56.028;92.904;2022-11-12T14:36:33;99393.47;;;2.86;45.04
42887;BME280;29032;56.028;92.904;2022-11-12T14:41:57;99376.84;;;2.95;44.79
42887;BME280;29032;56.028;92.904;2022-11-12T14:47:18;99380.06;;;2.93;45.08
42887;BME280;29032;56.028;92.904;2022-11-12T14:52:41;99384.91;;;2.84;44.93
42887;BME280;29032;56.028;92.904;2022-11-12T14:58:05;99366.50;;;2.69;44.67
42887;BME280;29032;56.028;92.904;2022-11-12T15:03:30;99356.56;;;2.51;45.21
42887;BME280;29032;56.028;92.904;2022-11-12T15:08:56;99350.31;;;2.31;45.47
42887;BME280;29032;56.028;92.904;2022-11-12T15:14:22;99340.22;;;2.22;45.96
42887;BME280;29032;56.028;92.904;2022-11-12T15:19:43;99338.06;;;2.11;46.02
42887;BME280;29032;56.028;92.904;2022-11-12T15:25:11;99329.69;;;2.20;46.18
42887;BME280;29032;56.028;92.904;2022-11-12T15:30:39;99317.47;;;2.21;46.44
42887;BME280;29032;56.028;92.904;2022-11-12T15:36:00;99324.59;;;2.34;46.25
42887;BME280;29032;56.028;92.904;2022-11-12T15:41:22;99310.38;;;2.35;46.56
42887;BME280;29032;56.028;92.904;2022-11-12T15:46:45;99298.78;;;2.46;46.79
42887;BME280;29032;56.028;92.904;2022-11-12T15:52:06;99284.22;;;2.60;46.26
42887;BME280;29032;56.028;92.904;2022-11-12T15:57:28;99287.41;;;2.79;46.27
42887;BME280;29032;56.028;92.904;2022-11-12T16:02:55;99279.63;;;2.77;46.31
42887;BME280;29032;56.028;92.904;2022-11-12T16:08:17;99274.13;;;2.77;46.35
42887;BME280;29032;56.028;92.904;2022-11-12T16:13:37;99258.19;;;2.82;45.91
42887;BME280;29032;56.028;92.904;2022-11-12T16:18:59;99253.81;;;2.69;46.71
42887;BME280;29032;56.028;92.904;2022-11-12T16:24:20;99248.25;;;2.64;45.91
42887;BME280;29032;56.028;92.904;2022-11-12T16:29:41;99239.59;;;2.71;45.65
42887;BME280;29032;56.028;92.904;2022-11-12T16:35:04;99229.19;;;2.81;46.08
42887;BME280;29032;56.028;92.904;2022-11-12T16:40:26;99217.66;;;3.02;45.42
42887;BME280;29032;56.028;92.904;2022-11-12T16:45:46;99206.59;;;3.28;45.08
42887;BME280;29032;56.028;92.904;2022-11-12T16:51:14;99187.69;;;3.42;44.37
42887;BME280;29032;56.028;92.904;2022-11-12T16:56:35;99187.34;;;3.34;44.34
42887;BME280;29032;56.028;92.904;2022-11-12T17:01:57;99173.88;;;3.36;44.22
42887;BME280;29032;56.028;92.904;2022-11-12T17:07:19;99183.31;;;3.24;44.49
42887;BME280;29032;56.028;92.904;2022-11-12T17:12:40;99165.16;;;3.06;44.72
42887;BME280;29032;56.028;92.904;2022-11-12T17:18:00;99158.59;;;2.92;45.25
42887;BME280;29032;56.028;92.904;2022-11-12T17:23:22;99147.97;;;2.79;45.42
42887;BME280;29032;56.028;92.904;2022-11-12T17:28:43;99140.06;;;2.61;45.95
42887;BME280;29032;56.028;92.904;2022-11-12T17:34:04;99135.53;;;2.58;46.34
42887;BME280;29032;56.028;92.904;2022-11-12T17:39:26;99122.50;;;2.53;46.38
42887;BME280;29032;56.028;92.904;2022-11-12T17:44:47;99132.06;;;2.32;46.62
42887;BME280;29032;56.028;92.904;2022-11-12T17:50:07;99114.13;;;2.36;46.86
42887;BME280;29032;56.028;92.904;2022-11-12T17:55:29;99112.94;;;2.43;47.00
42887;BME280;29032;56.028;92.904;2022-11-12T18:00:50;99101.50;;;2.50;46.68
42887;BME280;29032;56.028;92.904;2022-11-12T18:06:13;99103.81;;;2.57;46.79
42887;BME280;29032;56.028;92.904;2022-11-12T18:11:41;99090.38;;;2.65;46.88
42887;BME280;29032;56.028;92.904;2022-11-12T18:17:01;99084.03;;;2.53;47.28
42887;BME280;29032;56.028;92.904;2022-11-12T18:22:22;99065.94;;;2.41;47.81
42887;BME280;29032;56.028;92.904;2022-11-12T18:27:44;99062.22;;;2.44;47.97
42887;BME280;29032;56.028;92.904;2022-11-12T18:33:04;99037.50;;;2.44;48.44
42887;BME280;29032;56.028;92.904;2022-11-12T18:38:24;99038.06;;;2.54;48.24
42887;BME280;29032;56.028;92.904;2022-11-12T18:43:46;99034.66;;;2.64;48.22
42887;BME280;29032;56.028;92.904;2022-11-12T18:49:06;99010.88;;;2.61;48.10
42887;BME280;29032;56.028;92.904;2022-11-12T18:54:27;99008.22;;;2.72;48.26
42887;BME280;29032;56.028;92.904;2022-11-12T18:59:48;98994.28;;;2.82;48.32
42887;BME280;29032;56.028;92.904;2022-11-12T19:05:09;98992.81;;;2.86;48.08
42887;BME280;29032;56.028;92.904;2022-11-12T19:10:29;98981.78;;;2.81;48.21
42887;BME280;29032;56.028;92.904;2022-11-12T19:15:51;98985.38;;;2.98;48.09
42887;BME280;29032;56.028;92.904;2022-11-12T19:21:13;98967.16;;;3.00;48.40
42887;BME280;29032;56.028;92.904;2022-11-12T19:26:34;98963.03;;;2.79;48.90
42887;BME280;29032;56.028;92.904;2022-11-12T19:31:56;98954.75;;;2.73;49.38
42887;BME280;29032;56.028;92.904;2022-11-12T19:37:16;98935.72;;;2.64;49.35
42887;BME280;29032;56.028;92.904;2022-11-12T19:42:36;98927.94;;;2.63;49.79
42887;BME280;29032;56.028;92.904;2022-11-12T19:47:58;98929.16;;;2.56;50.04
42887;BME280;29032;56.028;92.904;2022-11-12T19:53:18;98913.13;;;2.49;50.44
42887;BME280;29032;56.028;92.904;2022-11-12T19:58:43;98903.88;;;2.46;50.42
42887;BME280;29032;56.028;92.904;2022-11-12T20:04:05;98901.63;;;2.45;50.58
42887;BME280;29032;56.028;92.904;2022-11-12T20:09:25;98884.34;;;2.33;51.28
42887;BME280;29032;56.028;92.904;2022-11-12T20:14:46;98871.34;;;2.34;51.02
42887;BME280;29032;56.028;92.904;2022-11-12T20:20:09;98870.69;;;2.50;51.25
42887;BME280;29032;56.028;92.904;2022-11-12T20:25:29;98862.19;;;2.48;51.18
42887;BME280;29032;56.028;92.904;2022-11-12T20:30:50;98851.50;;;2.61;50.97
42887;BME280;29032;56.028;92.904;2022-11-12T20:36:13;98839.56;;;2.75;50.91
42887;BME280;29032;56.028;92.904;2022-11-12T20:41:33;98826.53;;;2.70;51.04
42887;BME280;29032;56.028;92.904;2022-11-12T20:46:54;98824.28;;;2.69;51.39
42887;BME280;29032;56.028;92.904;2022-11-12T20:52:16;98817.81;;;2.77;51.39
42887;BME280;29032;56.028;92.904;2022-11-12T20:57:36;98802.84;;;2.78;51.47
42887;BME280;29032;56.028;92.904;2022-11-12T21:02:56;98798.66;;;2.94;51.27
42887;BME280;29032;56.028;92.904;2022-11-12T21:08:19;98787.91;;;3.02;51.67
42887;BME280;29032;56.028;92.904;2022-11-12T21:13:40;98777.91;;;2.93;52.53
42887;BME280;29032;56.028;92.904;2022-11-12T21:19:00;98763.91;;;2.97;53.11
42887;BME280;29032;56.028;92.904;2022-11-12T21:24:23;98749.41;;;3.02;53.43
42887;BME280;29032;56.028;92.904;2022-11-12T21:29:43;98745.66;;;3.05;53.46
42887;BME280;29032;56.028;92.904;2022-11-12T21:35:04;98736.16;;;3.17;53.86
42887;BME280;29032;56.028;92.904;2022-11-12T21:40:26;98735.91;;;3.26;53.62
42887;BME280;29032;56.028;92.904;2022-11-12T21:45:47;98723.16;;;3.23;53.88
42887;BME280;29032;56.028;92.904;2022-11-12T21:51:09;98718.13;;;3.33;53.76
42887;BME280;29032;56.028;92.904;2022-11-12T21:56:32;98715.88;;;3.43;53.24
42887;BME280;29032;56.028;92.904;2022-11-12T22:01:52;98727.13;;;3.50;53.53
42887;BME280;29032;56.028;92.904;2022-11-12T22:07:12;98707.13;;;3.55;53.07
42887;BME280;29032;56.028;92.904;2022-11-12T22:12:34;98697.59;;;3.51;53.04
42887;BME280;29032;56.028;92.904;2022-11-12T22:17:56;98697.13;;;3.36;53.22
42887;BME280;29032;56.028;92.904;2022-11-12T22:23:17;98687.63;;;3.31;53.46
42887;BME280;29032;56.028;92.904;2022-11-12T22:28:39;98686.38;;;3.38;53.57
42887;BME280;29032;56.028;92.904;2022-11-12T22:34:00;98689.88;;;3.32;53.38
42887;BME280;29032;56.028;92.904;2022-11-12T22:39:21;98682.38;;;3.33;53.46
42887;BME280;29032;56.028;92.904;2022-11-12T22:44:42;98683.34;;;3.47;53.31
42887;BME280;29032;56.028;92.904;2022-11-12T22:50:04;98678.09;;;3.49;53.27
42887;BME280;29032;56.028;92.904;2022-11-12T22:55:24;98672.81;;;3.56;52.99
42887;BME280;29032;56.028;92.904;2022-11-12T23:00:46;98675.81;;;3.64;52.85
42887;BME280;29032;56.028;92.904;2022-11-12T23:06:07;98675.06;;;3.58;52.85
42887;BME280;29032;56.028;92.904;2022-11-12T23:11:28;98668.59;;;3.50;52.78
42887;BME280;29032;56.028;92.904;2022-11-12T23:16:50;98664.34;;;3.49;52.93
42887;BME280;29032;56.028;92.904;2022-11-12T23:22:10;98667.13;;;3.26;53.43
42887;BME280;29032;56.028;92.904;2022-11-12T23:27:30;98661.91;;;3.17;53.63
42887;BME280;29032;56.028;92.904;2022-11-12T23:32:52;98665.66;;;3.09;54.42
42887;BME280;29032;56.028;92.904;2022-11-12T23:38:13;98653.66;;;2.89;54.14
42887;BME280;29032;56.028;92.904;2022-11-12T23:43:33;98660.91;;;2.98;54.38
42887;BME280;29032;56.028;92.904;2022-11-12T23:48:55;98660.91;;;2.98;54.95
42887;BME280;29032;56.028;92.904;2022-11-12T23:54:15;98655.91;;;2.91;55.14
42887;BME280;29032;56.028;92.904;2022-11-12T23:59:35;98657.41;;;2.92;55.00
